createdAt,value
2018-05-31T00:02:22.757Z,20.30
2018-05-31T00:04:51.184Z,20.30
2018-05-31T00:07:18.765Z,20.30
2018-05-31T00:09:46.285Z,20.10
2018-05-31T00:12:13.866Z,20.20
2018-05-31T00:14:41.428Z,19.80
2018-05-31T00:17:08.985Z,19.80
2018-05-31T00:19:36.711Z,20.00
2018-05-31T00:22:04.277Z,20.20
2018-05-31T00:24:31.801Z,19.90
2018-05-31T00:27:00.224Z,19.90
2018-05-31T00:29:27.866Z,19.90
2018-05-31T00:31:55.378Z,19.80
2018-05-31T00:34:22.981Z,19.70
2018-05-31T00:36:50.542Z,19.60
2018-05-31T00:39:18.090Z,19.60
2018-05-31T00:41:45.607Z,19.90
2018-05-31T00:44:13.422Z,20.20
2018-05-31T00:46:40.993Z,20.30
2018-05-31T00:49:08.579Z,20.30
2018-05-31T00:51:36.168Z,20.40
2018-05-31T00:54:03.806Z,20.40
2018-05-31T00:56:32.104Z,20.30
2018-05-31T00:59:00.416Z,20.10
2018-05-31T01:01:27.938Z,20.10
2018-05-31T01:03:56.317Z,20.20
2018-05-31T01:06:23.845Z,20.20
2018-05-31T01:08:51.391Z,20.20
2018-05-31T01:11:18.958Z,20.20
2018-05-31T01:13:46.544Z,20.20
2018-05-31T01:16:15.055Z,20.20
2018-05-31T01:18:42.635Z,20.20
2018-05-31T01:21:10.222Z,20.10
2018-05-31T01:23:37.735Z,20.10
2018-05-31T01:26:05.329Z,20.00
2018-05-31T01:28:32.874Z,19.90
2018-05-31T01:31:00.464Z,19.90
2018-05-31T01:33:28.748Z,19.90
2018-05-31T01:35:57.077Z,19.90
2018-05-31T01:38:31.345Z,19.80
2018-05-31T01:40:58.896Z,19.90
2018-05-31T01:43:27.306Z,19.80
2018-05-31T01:45:54.966Z,19.80
2018-05-31T01:48:22.557Z,19.80
2018-05-31T01:50:50.123Z,19.70
2018-05-31T01:53:17.648Z,19.70
2018-05-31T01:55:45.305Z,19.60
2018-05-31T01:58:12.829Z,19.50
2018-05-31T02:00:41.121Z,19.50
2018-05-31T02:03:08.671Z,19.50
2018-05-31T02:05:36.281Z,19.40
2018-05-31T02:08:03.897Z,19.40
2018-05-31T02:10:31.424Z,19.40
2018-05-31T02:12:59.039Z,19.40
2018-05-31T02:15:26.575Z,19.40
2018-05-31T02:17:54.156Z,19.40
2018-05-31T02:20:21.688Z,19.40
2018-05-31T02:22:49.257Z,19.30
2018-05-31T02:25:16.921Z,19.30
2018-05-31T02:27:44.485Z,19.20
2018-05-31T02:30:12.173Z,19.00
2018-05-31T02:32:39.716Z,18.70
2018-05-31T02:35:07.281Z,18.70
2018-05-31T02:37:34.951Z,18.70
2018-05-31T02:40:02.614Z,19.00
2018-05-31T02:42:30.128Z,19.20
2018-05-31T02:44:57.672Z,19.20
2018-05-31T02:47:25.312Z,19.20
2018-05-31T02:49:53.636Z,19.00
2018-05-31T02:52:21.187Z,19.00
2018-05-31T02:54:48.721Z,18.60
2018-05-31T02:57:16.242Z,18.50
2018-05-31T02:59:43.860Z,18.40
2018-05-31T03:02:11.487Z,18.30
2018-05-31T03:04:39.897Z,18.30
2018-05-31T03:07:07.439Z,18.30
2018-05-31T03:09:35.002Z,18.40
2018-05-31T03:12:02.601Z,18.30
2018-05-31T03:14:30.115Z,18.40
2018-05-31T03:16:57.844Z,18.70
2018-05-31T03:19:25.352Z,18.80
2018-05-31T03:21:53.114Z,18.80
2018-05-31T03:24:20.670Z,18.80
2018-05-31T03:26:48.214Z,18.80
2018-05-31T03:29:15.737Z,18.60
2018-05-31T03:31:43.272Z,18.30
2018-05-31T03:34:10.804Z,18.40
2018-05-31T03:36:38.388Z,18.60
2018-05-31T03:39:05.938Z,18.50
2018-05-31T03:41:33.643Z,18.40
2018-05-31T03:44:01.956Z,18.60
2018-05-31T03:46:29.489Z,18.60
2018-05-31T03:48:57.140Z,18.70
2018-05-31T03:51:25.617Z,18.30
2018-05-31T03:53:54.031Z,18.20
2018-05-31T03:56:21.576Z,18.20
2018-05-31T03:58:49.146Z,18.40
2018-05-31T04:01:16.694Z,18.30
2018-05-31T04:03:44.400Z,18.30
2018-05-31T04:06:12.026Z,18.40
2018-05-31T04:08:39.569Z,18.60
2018-05-31T04:11:07.101Z,18.80
2018-05-31T04:13:35.427Z,18.50
2018-05-31T04:16:02.941Z,18.40
2018-05-31T04:18:31.241Z,18.20
2018-05-31T04:20:58.790Z,18.20
2018-05-31T04:23:26.548Z,18.20
2018-05-31T04:25:54.865Z,17.60
2018-05-31T04:28:22.485Z,18.30
2018-05-31T04:30:50.130Z,18.30
2018-05-31T04:33:18.453Z,18.30
2018-05-31T04:35:46.016Z,18.30
2018-05-31T04:38:13.646Z,18.30
2018-05-31T04:40:41.322Z,18.20
2018-05-31T04:43:08.970Z,18.20
2018-05-31T04:45:36.542Z,18.20
2018-05-31T04:48:04.149Z,18.30
2018-05-31T04:50:31.905Z,18.30
2018-05-31T04:52:59.521Z,18.30
2018-05-31T04:55:27.090Z,18.50
2018-05-31T04:57:54.725Z,18.40
2018-05-31T05:00:22.399Z,18.30
2018-05-31T05:02:49.957Z,18.30
2018-05-31T05:05:17.508Z,18.60
2018-05-31T05:07:45.032Z,18.60
2018-05-31T05:10:13.371Z,18.60
2018-05-31T05:12:41.097Z,18.60
2018-05-31T05:15:08.697Z,18.60
2018-05-31T05:17:36.330Z,18.70
2018-05-31T05:20:04.073Z,18.70
2018-05-31T05:22:31.628Z,18.70
2018-05-31T05:24:59.723Z,18.90
2018-05-31T05:27:27.267Z,19.00
2018-05-31T05:29:54.869Z,19.00
2018-05-31T05:32:22.529Z,18.90
2018-05-31T05:34:50.057Z,18.90
2018-05-31T05:37:17.717Z,19.00
2018-05-31T05:39:45.241Z,19.00
2018-05-31T05:42:13.583Z,19.10
2018-05-31T05:44:41.097Z,19.10
2018-05-31T05:47:08.653Z,19.30
2018-05-31T05:49:36.214Z,19.40
2018-05-31T05:52:03.885Z,19.50
2018-05-31T05:54:31.430Z,19.70
2018-05-31T05:56:58.946Z,19.70
2018-05-31T05:59:28.005Z,19.60
2018-05-31T06:01:55.649Z,19.60
2018-05-31T06:04:23.957Z,19.80
2018-05-31T06:06:51.581Z,19.70
2018-05-31T06:09:19.147Z,19.70
2018-05-31T06:11:46.777Z,19.70
2018-05-31T06:14:15.098Z,19.80
2018-05-31T06:16:42.630Z,19.80
2018-05-31T06:19:10.292Z,19.90
2018-05-31T06:21:37.859Z,19.90
2018-05-31T06:24:05.417Z,20.10
2018-05-31T06:26:33.012Z,20.00
2018-05-31T06:29:00.484Z,20.10
2018-05-31T06:31:28.048Z,20.00
2018-05-31T06:33:56.337Z,20.20
2018-05-31T06:36:24.648Z,20.50
2018-05-31T06:38:52.253Z,20.50
2018-05-31T06:41:19.808Z,20.50
2018-05-31T06:43:47.456Z,20.60
2018-05-31T06:46:15.167Z,20.80
2018-05-31T06:48:42.697Z,20.70
2018-05-31T06:51:11.020Z,20.70
2018-05-31T06:53:38.545Z,20.70
2018-05-31T06:56:06.109Z,20.70
2018-05-31T06:58:33.636Z,20.80
2018-05-31T07:01:01.191Z,20.80
2018-05-31T07:03:28.821Z,20.80
2018-05-31T07:05:56.349Z,20.90
2018-05-31T07:08:23.920Z,21.40
2018-05-31T07:10:51.457Z,22.20
2018-05-31T07:13:19.009Z,22.60
2018-05-31T07:15:46.538Z,22.80
2018-05-31T07:18:14.185Z,22.90
2018-05-31T07:20:41.693Z,22.40
2018-05-31T07:23:10.003Z,22.50
2018-05-31T07:25:37.559Z,22.50
2018-05-31T07:28:05.101Z,22.80
2018-05-31T07:30:32.635Z,24.40
2018-05-31T07:33:00.936Z,25.00
2018-05-31T07:35:28.493Z,25.00
2018-05-31T07:37:56.066Z,24.70
2018-05-31T07:40:23.573Z,25.50
2018-05-31T07:42:51.910Z,26.30
2018-05-31T07:45:19.547Z,26.30
2018-05-31T07:47:47.384Z,26.40
2018-05-31T07:50:14.961Z,26.30
2018-05-31T07:52:42.485Z,26.20
2018-05-31T07:55:10.083Z,27.60
2018-05-31T07:57:37.610Z,27.90
2018-05-31T08:00:05.922Z,26.10
2018-05-31T08:02:33.512Z,26.10
2018-05-31T08:05:01.153Z,26.30
2018-05-31T08:07:28.760Z,25.70
2018-05-31T08:09:56.377Z,25.30
2018-05-31T08:12:23.900Z,27.60
2018-05-31T08:14:51.599Z,28.30
2018-05-31T08:17:19.144Z,27.40
2018-05-31T08:19:46.681Z,26.40
2018-05-31T08:22:14.289Z,26.10
2018-05-31T08:24:41.929Z,26.00
2018-05-31T08:27:09.470Z,26.40
2018-05-31T08:29:37.009Z,26.70
2018-05-31T08:32:04.557Z,26.30
2018-05-31T08:34:32.108Z,27.00
2018-05-31T08:37:00.521Z,27.00
2018-05-31T08:39:28.040Z,27.00
2018-05-31T08:41:56.385Z,26.90
2018-05-31T08:44:23.909Z,26.90
2018-05-31T08:46:51.456Z,28.00
2018-05-31T08:49:19.026Z,27.50
2018-05-31T08:51:46.576Z,27.00
2018-05-31T08:54:14.141Z,26.90
2018-05-31T08:56:41.692Z,27.20
2018-05-31T08:59:09.346Z,28.90
2018-05-31T09:01:36.882Z,28.80
2018-05-31T09:04:05.239Z,30.50
2018-05-31T09:06:32.749Z,30.50
2018-05-31T09:09:00.481Z,28.60
2018-05-31T09:11:28.892Z,27.80
2018-05-31T09:13:56.669Z,27.70
2018-05-31T09:16:24.201Z,27.70
2018-05-31T09:18:51.885Z,29.00
2018-05-31T09:21:19.461Z,29.50
2018-05-31T09:23:47.095Z,29.30
2018-05-31T09:26:14.606Z,29.90
2018-05-31T09:28:42.928Z,29.20
2018-05-31T09:31:10.595Z,29.20
2018-05-31T09:33:38.116Z,28.10
2018-05-31T09:36:06.449Z,30.70
2018-05-31T09:38:33.981Z,30.60
2018-05-31T09:41:01.587Z,29.60
2018-05-31T09:43:29.892Z,28.40
2018-05-31T09:45:57.471Z,28.30
2018-05-31T09:48:25.006Z,28.30
2018-05-31T09:50:53.410Z,29.20
2018-05-31T09:53:21.028Z,29.20
2018-05-31T09:55:49.340Z,28.80
2018-05-31T09:58:17.554Z,28.80
2018-05-31T10:00:45.034Z,29.50
2018-05-31T10:03:13.451Z,30.30
2018-05-31T10:05:40.996Z,30.30
2018-05-31T10:08:08.541Z,29.00
2018-05-31T10:10:36.127Z,30.80
2018-05-31T10:13:03.785Z,31.60
2018-05-31T10:15:31.297Z,32.60
2018-05-31T10:17:59.821Z,30.10
2018-05-31T10:20:27.370Z,30.10
2018-05-31T10:22:55.118Z,31.10
2018-05-31T10:25:23.536Z,30.60
2018-05-31T10:27:51.092Z,30.60
2018-05-31T10:30:18.742Z,31.30
2018-05-31T10:32:46.345Z,32.60
2018-05-31T10:35:13.898Z,32.70
2018-05-31T10:37:42.258Z,31.60
2018-05-31T10:40:09.852Z,31.50
2018-05-31T10:42:37.409Z,30.60
2018-05-31T10:45:05.746Z,31.30
2018-05-31T10:47:33.400Z,31.30
2018-05-31T10:50:00.952Z,31.10
2018-05-31T10:52:28.549Z,30.00
2018-05-31T10:54:56.387Z,29.90
2018-05-31T10:57:24.034Z,30.40
2018-05-31T10:59:51.613Z,31.10
2018-05-31T11:02:19.164Z,30.60
2018-05-31T11:04:46.742Z,31.50
2018-05-31T11:07:14.308Z,32.50
2018-05-31T11:09:41.949Z,31.20
2018-05-31T11:12:09.515Z,32.60
2018-05-31T11:14:37.055Z,32.60
2018-05-31T11:17:04.602Z,30.90
2018-05-31T11:19:32.102Z,32.30
2018-05-31T11:21:59.848Z,33.10
2018-05-31T11:24:27.377Z,33.40
2018-05-31T11:26:54.951Z,32.80
2018-05-31T11:29:22.673Z,31.70
2018-05-31T11:31:50.253Z,31.30
2018-05-31T11:34:17.765Z,31.30
2018-05-31T11:36:46.087Z,30.20
2018-05-31T11:39:13.641Z,30.20
2018-05-31T11:41:41.275Z,30.50
2018-05-31T11:44:08.762Z,30.70
2018-05-31T11:46:36.309Z,30.20
2018-05-31T11:49:03.896Z,29.10
2018-05-31T11:51:31.741Z,28.00
2018-05-31T11:53:59.276Z,28.00
2018-05-31T11:56:26.835Z,28.40
2018-05-31T11:58:55.142Z,28.50
2018-05-31T12:01:22.911Z,28.50
2018-05-31T12:03:50.491Z,29.20
2018-05-31T12:06:18.116Z,29.10
2018-05-31T12:08:45.776Z,29.10
2018-05-31T12:11:13.300Z,28.90
2018-05-31T12:13:41.629Z,30.40
2018-05-31T12:16:09.349Z,30.30
2018-05-31T12:18:37.789Z,29.40
2018-05-31T12:21:05.332Z,29.40
2018-05-31T12:23:32.849Z,29.80
2018-05-31T12:26:00.453Z,29.10
2018-05-31T12:28:29.508Z,28.40
2018-05-31T12:30:57.079Z,28.40
2018-05-31T12:33:24.648Z,28.70
2018-05-31T12:35:52.373Z,29.40
2018-05-31T12:38:20.049Z,28.90
2018-05-31T12:40:47.618Z,29.00
2018-05-31T12:43:15.152Z,28.90
2018-05-31T12:45:43.655Z,28.40
2018-05-31T12:48:11.201Z,28.40
2018-05-31T12:50:38.761Z,28.90
2018-05-31T12:53:06.376Z,29.50
2018-05-31T12:55:33.928Z,30.10
2018-05-31T12:58:01.500Z,29.90
2018-05-31T13:00:29.049Z,29.80
2018-05-31T13:02:57.408Z,29.10
2018-05-31T13:05:25.047Z,29.10
2018-05-31T13:07:52.705Z,29.40
2018-05-31T13:10:20.239Z,29.60
2018-05-31T13:12:47.919Z,29.10
2018-05-31T13:15:15.481Z,28.80
2018-05-31T13:17:43.213Z,28.50
2018-05-31T13:20:10.821Z,28.60
2018-05-31T13:22:38.412Z,28.40
2018-05-31T13:25:06.720Z,27.90
2018-05-31T13:27:34.290Z,27.80
2018-05-31T13:30:01.850Z,28.00
2018-05-31T13:32:29.366Z,27.70
2018-05-31T13:34:57.681Z,28.00
2018-05-31T13:37:25.208Z,27.90
2018-05-31T13:39:53.524Z,27.80
2018-05-31T13:42:21.137Z,27.80
2018-05-31T13:44:49.485Z,27.20
2018-05-31T13:47:17.318Z,27.10
2018-05-31T13:49:44.874Z,28.20
2018-05-31T13:52:12.506Z,28.20
2018-05-31T13:54:41.058Z,27.70
2018-05-31T13:57:08.573Z,27.60
2018-05-31T13:59:36.213Z,27.80
2018-05-31T14:02:04.524Z,27.10
2018-05-31T14:04:32.045Z,27.10
2018-05-31T14:06:59.726Z,27.80
2018-05-31T14:09:27.275Z,27.70
2018-05-31T14:11:55.577Z,27.30
2018-05-31T14:14:23.112Z,27.30
2018-05-31T14:16:50.764Z,27.00
2018-05-31T14:19:19.120Z,26.50
2018-05-31T14:21:47.436Z,26.40
2018-05-31T14:24:14.997Z,26.40
2018-05-31T14:26:42.571Z,26.60
2018-05-31T14:29:10.293Z,27.40
2018-05-31T14:31:37.818Z,27.50
2018-05-31T14:34:06.273Z,27.00
2018-05-31T14:36:33.904Z,27.00
2018-05-31T14:39:01.567Z,26.90
2018-05-31T14:41:29.134Z,27.00
2018-05-31T14:43:56.720Z,26.40
2018-05-31T14:46:24.290Z,26.40
2018-05-31T14:48:51.892Z,26.30
2018-05-31T14:51:19.588Z,26.80
2018-05-31T14:53:47.294Z,26.40
2018-05-31T14:56:15.702Z,26.80
2018-05-31T14:58:43.260Z,26.80
2018-05-31T15:01:10.849Z,26.40
2018-05-31T15:03:39.367Z,26.70
2018-05-31T15:06:07.727Z,26.60
2018-05-31T15:08:35.610Z,26.60
2018-05-31T15:11:04.021Z,26.80
2018-05-31T15:13:31.681Z,26.80
2018-05-31T15:15:59.373Z,26.40
2018-05-31T20:05:43.065Z,23.80
2018-05-31T20:08:10.607Z,23.80
2018-05-31T20:10:38.168Z,23.80
2018-05-31T20:13:05.714Z,23.90
2018-05-31T20:15:33.375Z,23.60
2018-05-31T20:18:00.888Z,23.50
2018-05-31T20:20:28.595Z,23.50
2018-05-31T20:22:56.263Z,23.40
2018-05-31T20:25:23.832Z,23.60
2018-05-31T20:27:51.376Z,23.80
2018-05-31T20:30:18.975Z,24.00
2018-05-31T20:32:46.538Z,24.00
2018-05-31T20:35:14.125Z,24.00
2018-05-31T20:37:41.718Z,24.10
2018-05-31T20:40:09.252Z,24.10
2018-05-31T20:42:36.826Z,24.00
2018-05-31T20:45:04.322Z,23.90
2018-05-31T20:47:31.907Z,23.90
2018-05-31T20:50:00.257Z,23.60
2018-05-31T20:52:27.832Z,23.70
2018-05-31T20:54:56.134Z,23.40
2018-05-31T20:57:23.706Z,23.40
2018-05-31T20:59:51.520Z,23.30
2018-05-31T21:02:19.066Z,23.20
2018-05-31T21:04:46.609Z,23.30
2018-05-31T21:07:14.106Z,23.30
2018-05-31T21:09:42.521Z,23.30
2018-05-31T21:12:10.038Z,23.30
2018-05-31T21:14:38.367Z,23.20
2018-05-31T21:17:05.888Z,23.20
2018-05-31T21:19:34.222Z,23.60
2018-05-31T21:22:01.755Z,23.50
2018-05-31T21:24:29.409Z,23.40
2018-05-31T21:26:57.042Z,23.30
2018-05-31T21:29:25.358Z,23.30
2018-05-31T21:31:52.895Z,23.30
2018-05-31T21:34:20.456Z,23.30
2018-05-31T21:36:47.968Z,23.30
2018-05-31T21:39:16.326Z,23.20
2018-05-31T21:41:43.861Z,23.30
2018-05-31T21:44:11.388Z,23.10
2018-05-31T21:46:38.956Z,22.80
2018-05-31T21:49:06.472Z,22.70
2018-05-31T21:51:34.020Z,22.70
2018-05-31T21:54:01.745Z,22.50
2018-05-31T21:56:29.281Z,22.20
2018-05-31T21:58:56.816Z,22.40
2018-05-31T22:01:25.153Z,22.50
2018-05-31T22:03:52.690Z,22.40
2018-05-31T22:06:20.241Z,22.50
2018-05-31T22:08:47.780Z,22.50
2018-05-31T22:11:16.152Z,21.00
2018-05-31T22:13:44.462Z,19.40
2018-05-31T22:16:12.021Z,19.30
2018-05-31T22:18:39.745Z,18.50
2018-05-31T22:21:08.205Z,17.10
2018-05-31T22:23:35.745Z,17.10
2018-05-31T22:26:03.283Z,16.90
2018-05-31T22:28:30.846Z,16.80
2018-05-31T22:30:58.494Z,16.70
2018-05-31T22:33:26.239Z,16.70
2018-05-31T22:35:53.765Z,16.70
2018-05-31T22:38:22.098Z,16.70
2018-05-31T22:40:49.633Z,16.70
2018-05-31T22:43:17.284Z,16.50
2018-05-31T22:45:45.564Z,16.40
2018-05-31T22:48:13.243Z,16.40
2018-05-31T22:50:40.754Z,16.30
2018-05-31T22:53:08.361Z,16.40
2018-05-31T22:55:35.967Z,15.60
2018-05-31T22:58:03.557Z,16.50
2018-05-31T23:00:31.238Z,16.40
2018-05-31T23:02:58.812Z,16.40
2018-05-31T23:05:27.225Z,16.50
2018-05-31T23:07:54.753Z,16.50
2018-05-31T23:10:22.306Z,16.50
2018-05-31T23:12:49.838Z,16.40
2018-05-31T23:15:17.397Z,16.50
2018-05-31T23:17:44.921Z,16.60
2018-05-31T23:20:12.545Z,16.70
2018-05-31T23:22:40.183Z,16.80
2018-05-31T23:25:07.726Z,16.80
2018-05-31T23:27:35.320Z,16.80
2018-05-31T23:30:02.921Z,16.70
2018-05-31T23:32:31.197Z,16.70
2018-05-31T23:34:59.509Z,16.70
2018-05-31T23:37:27.037Z,16.70
2018-05-31T23:39:55.381Z,16.60
2018-05-31T23:42:22.960Z,16.60
2018-05-31T23:44:51.289Z,16.60
2018-05-31T23:47:19.006Z,16.60
2018-05-31T23:49:47.334Z,16.80
2018-05-31T23:52:14.844Z,16.70
2018-05-31T23:54:42.441Z,16.80
2018-05-31T23:57:09.999Z,16.70
2018-05-31T23:59:37.533Z,16.80
